createdAt,value
2019-01-29T00:02:07.184Z,1.50
2019-01-29T00:04:42.893Z,1.43
2019-01-29T00:07:21.502Z,1.67
2019-01-29T00:09:56.202Z,2.77
2019-01-29T00:12:44.441Z,3.00
2019-01-29T00:15:18.516Z,1.60
2019-01-29T00:18:00.904Z,2.20
2019-01-29T00:20:36.810Z,1.60
2019-01-29T00:23:08.725Z,4.40
2019-01-29T00:25:41.906Z,1.50
2019-01-29T00:28:15.835Z,1.83
2019-01-29T00:30:49.351Z,1.40
2019-01-29T00:33:21.641Z,1.70
2019-01-29T00:35:56.993Z,1.87
2019-01-29T00:38:30.418Z,1.73
2019-01-29T00:41:02.940Z,1.80
2019-01-29T00:43:37.656Z,2.00
2019-01-29T00:46:10.876Z,2.00
2019-01-29T00:48:45.727Z,1.87
2019-01-29T00:51:16.807Z,2.00
2019-01-29T00:53:51.150Z,2.30
2019-01-29T00:56:24.754Z,2.03
2019-01-29T00:59:05.999Z,1.70
2019-01-29T01:01:36.996Z,1.93
2019-01-29T01:04:08.189Z,2.13
2019-01-29T01:06:38.781Z,3.67
2019-01-29T01:09:10.207Z,2.23
2019-01-29T01:11:40.764Z,2.10
2019-01-29T01:14:13.255Z,2.50
2019-01-29T01:16:45.297Z,2.23
2019-01-29T01:19:17.881Z,2.17
2019-01-29T01:21:52.403Z,2.90
2019-01-29T01:24:29.685Z,2.10
2019-01-29T01:27:02.307Z,2.47
2019-01-29T01:29:37.145Z,2.73
2019-01-29T01:32:17.013Z,2.20
2019-01-29T01:34:49.437Z,2.30
2019-01-29T01:37:19.914Z,2.37
2019-01-29T01:39:51.100Z,2.23
2019-01-29T01:42:22.204Z,2.43
2019-01-29T01:45:01.221Z,2.50
2019-01-29T01:47:33.854Z,2.40
2019-01-29T01:50:09.021Z,2.50
2019-01-29T01:52:40.125Z,2.17
2019-01-29T01:55:13.500Z,2.40
2019-01-29T01:57:46.164Z,2.60
2019-01-29T02:00:21.833Z,3.13
2019-01-29T02:02:57.994Z,2.80
2019-01-29T02:05:30.415Z,3.47
2019-01-29T02:08:02.784Z,3.40
2019-01-29T02:10:37.934Z,3.77
2019-01-29T02:13:21.405Z,3.70
2019-01-29T02:15:55.663Z,3.70
2019-01-29T02:18:31.615Z,3.23
2019-01-29T02:21:03.683Z,3.60
2019-01-29T02:23:38.005Z,3.87
2019-01-29T02:26:10.798Z,3.57
2019-01-29T02:28:41.440Z,3.87
2019-01-29T02:31:14.850Z,4.30
2019-01-29T02:33:47.799Z,3.90
2019-01-29T02:36:26.953Z,3.43
2019-01-29T02:38:59.258Z,4.07
2019-01-29T02:41:36.410Z,3.33
2019-01-29T02:44:16.566Z,3.87
2019-01-29T02:46:53.068Z,3.80
2019-01-29T02:49:26.251Z,3.93
2019-01-29T02:52:00.808Z,4.17
2019-01-29T02:54:32.936Z,3.60
2019-01-29T02:57:04.708Z,4.57
2019-01-29T02:59:38.226Z,4.80
2019-01-29T03:02:17.467Z,4.00
2019-01-29T03:04:53.396Z,3.60
2019-01-29T03:07:23.623Z,3.60
2019-01-29T03:09:58.460Z,4.33
2019-01-29T03:12:47.539Z,4.10
2019-01-29T03:15:37.139Z,3.93
2019-01-29T03:18:17.554Z,4.30
2019-01-29T03:20:51.077Z,4.60
2019-01-29T03:23:27.641Z,6.43
2019-01-29T03:25:59.022Z,5.23
2019-01-29T03:28:29.669Z,3.47
2019-01-29T03:31:03.509Z,4.20
2019-01-29T03:33:50.889Z,4.17
2019-01-29T03:36:23.530Z,4.20
2019-01-29T03:39:01.749Z,4.87
2019-01-29T03:41:36.300Z,4.50
2019-01-29T03:44:10.284Z,4.97
2019-01-29T03:46:42.479Z,4.40
2019-01-29T03:49:15.880Z,4.80
2019-01-29T03:51:50.609Z,4.27
2019-01-29T03:54:21.240Z,4.50
2019-01-29T03:56:54.162Z,4.53
2019-01-29T03:59:29.056Z,4.60
2019-01-29T04:02:03.823Z,4.67
2019-01-29T04:04:38.904Z,3.73
2019-01-29T04:07:11.029Z,4.07
2019-01-29T04:09:45.080Z,4.97
2019-01-29T04:12:18.287Z,4.63
2019-01-29T04:14:51.899Z,4.80
2019-01-29T04:17:23.195Z,4.20
2019-01-29T04:19:58.587Z,4.30
2019-01-29T04:22:47.069Z,3.97
2019-01-29T04:25:19.506Z,3.93
2019-01-29T04:27:52.385Z,4.27
2019-01-29T04:30:24.121Z,3.97
2019-01-29T04:32:57.742Z,4.40
2019-01-29T04:35:29.038Z,4.00
2019-01-29T04:38:01.844Z,4.77
2019-01-29T04:40:36.909Z,4.20
2019-01-29T04:43:09.315Z,4.77
2019-01-29T04:45:40.318Z,4.73
2019-01-29T04:48:17.423Z,4.20
2019-01-29T04:50:49.507Z,4.40
2019-01-29T04:53:21.919Z,5.17
2019-01-29T04:55:58.086Z,4.13
2019-01-29T04:58:31.169Z,4.83
2019-01-29T05:01:03.951Z,4.37
2019-01-29T05:03:37.412Z,5.73
2019-01-29T05:06:08.266Z,4.47
2019-01-29T05:08:39.510Z,4.50
2019-01-29T05:11:11.727Z,3.80
2019-01-29T05:13:51.342Z,4.80
2019-01-29T05:16:24.177Z,3.83
2019-01-29T05:18:58.334Z,3.60
2019-01-29T05:21:29.576Z,3.97
2019-01-29T05:24:06.673Z,4.43
2019-01-29T05:26:36.679Z,4.63
2019-01-29T05:29:08.243Z,4.10
2019-01-29T05:31:43.864Z,4.17
2019-01-29T05:34:33.610Z,4.70
2019-01-29T05:37:06.181Z,4.97
2019-01-29T05:39:37.446Z,4.43
2019-01-29T05:42:17.241Z,4.33
2019-01-29T05:44:50.262Z,3.70
2019-01-29T05:47:25.107Z,7.30
2019-01-29T05:49:58.621Z,4.00
2019-01-29T05:52:30.663Z,3.90
2019-01-29T05:55:02.950Z,4.70
2019-01-29T05:57:37.093Z,5.80
2019-01-29T06:00:14.325Z,4.40
2019-01-29T06:02:48.463Z,5.33
2019-01-29T06:05:22.423Z,5.30
2019-01-29T06:07:56.878Z,5.40
2019-01-29T06:10:46.011Z,5.20
2019-01-29T06:13:35.519Z,6.60
2019-01-29T06:16:06.933Z,6.07
2019-01-29T06:18:37.383Z,5.93
2019-01-29T06:21:08.742Z,6.47
2019-01-29T06:23:40.925Z,6.27
2019-01-29T06:26:19.791Z,6.70
2019-01-29T06:28:52.116Z,7.63
2019-01-29T06:31:26.510Z,6.57
2019-01-29T06:34:01.691Z,7.10
2019-01-29T06:36:34.695Z,7.60
2019-01-29T06:39:09.092Z,7.10
2019-01-29T06:41:40.830Z,7.63
2019-01-29T06:44:11.711Z,9.93
2019-01-29T06:46:44.601Z,7.43
2019-01-29T06:49:17.304Z,7.70
2019-01-29T06:51:53.250Z,10.87
2019-01-29T06:54:33.805Z,9.10
2019-01-29T06:56:58.192Z,13.77
2019-01-29T06:59:28.744Z,10.27
2019-01-29T07:02:00.464Z,8.63
2019-01-29T07:04:34.931Z,10.40
2019-01-29T07:07:09.663Z,6.70
2019-01-29T07:09:43.513Z,8.50
2019-01-29T07:12:17.154Z,8.90
2019-01-29T07:14:49.871Z,6.63
2019-01-29T07:17:32.617Z,6.43
2019-01-29T07:20:07.861Z,8.30
2019-01-29T07:22:38.841Z,6.50
2019-01-29T07:25:13.549Z,10.07
2019-01-29T07:27:45.804Z,6.43
2019-01-29T07:30:17.018Z,7.40
2019-01-29T07:32:47.766Z,10.87
2019-01-29T07:35:21.484Z,10.60
2019-01-29T07:37:54.469Z,11.40
2019-01-29T07:40:47.077Z,8.60
2019-01-29T07:43:17.554Z,10.23
2019-01-29T07:45:50.036Z,6.73
2019-01-29T07:48:21.002Z,15.33
2019-01-29T07:50:51.987Z,7.93
2019-01-29T07:53:26.014Z,8.20
2019-01-29T07:56:00.482Z,10.33
2019-01-29T07:58:31.196Z,8.40
2019-01-29T08:01:03.470Z,7.47
2019-01-29T08:03:38.269Z,8.00
2019-01-29T08:06:15.179Z,7.83
2019-01-29T08:08:47.011Z,8.13
2019-01-29T08:11:18.160Z,15.00
2019-01-29T08:13:51.600Z,17.07
2019-01-29T08:16:39.926Z,18.57
2019-01-29T08:19:11.129Z,8.37
2019-01-29T08:21:46.123Z,14.33
2019-01-29T08:24:20.153Z,10.83
2019-01-29T08:26:57.266Z,7.10
2019-01-29T08:29:30.651Z,6.80
2019-01-29T08:32:06.463Z,9.97
2019-01-29T08:34:58.098Z,6.10
2019-01-29T08:37:31.879Z,10.97
2019-01-29T08:40:06.508Z,7.50
2019-01-29T08:43:00.921Z,6.60
2019-01-29T08:45:36.223Z,7.80
2019-01-29T08:48:09.110Z,7.27
2019-01-29T08:50:42.448Z,8.00
2019-01-29T08:53:16.348Z,4.77
2019-01-29T08:56:07.781Z,5.67
2019-01-29T08:58:43.108Z,6.23
2019-01-29T09:01:18.336Z,8.77
2019-01-29T09:03:50.979Z,7.90
2019-01-29T09:06:27.923Z,5.07
2019-01-29T09:09:00.048Z,6.03
2019-01-29T09:11:32.125Z,9.03
2019-01-29T09:14:07.774Z,10.93
2019-01-29T09:16:58.759Z,7.53
2019-01-29T09:19:31.260Z,7.00
2019-01-29T09:22:04.763Z,13.17
2019-01-29T09:24:37.513Z,6.90
2019-01-29T09:27:18.977Z,13.20
2019-01-29T09:29:52.778Z,11.50
2019-01-29T09:32:42.449Z,7.43
2019-01-29T09:35:19.859Z,6.40
2019-01-29T09:37:52.149Z,14.07
2019-01-29T09:40:28.983Z,6.93
2019-01-29T09:43:10.790Z,8.07
2019-01-29T09:45:41.764Z,12.60
2019-01-29T09:48:15.956Z,9.10
2019-01-29T09:50:51.600Z,15.83
2019-01-29T09:53:25.561Z,5.27
2019-01-29T09:56:12.653Z,6.60
2019-01-29T09:58:47.488Z,8.03
2019-01-29T10:01:20.368Z,7.57
2019-01-29T10:03:52.383Z,6.33
2019-01-29T10:06:29.087Z,9.87
2019-01-29T10:09:02.499Z,16.77
2019-01-29T10:11:37.595Z,10.80
2019-01-29T10:14:11.117Z,5.80
2019-01-29T10:16:47.715Z,7.90
2019-01-29T10:19:18.206Z,6.50
2019-01-29T10:21:52.393Z,4.60
2019-01-29T10:24:24.036Z,10.83
2019-01-29T10:26:58.431Z,3.90
2019-01-29T10:29:30.588Z,11.60
2019-01-29T10:32:06.845Z,5.63
2019-01-29T10:34:40.823Z,6.57
2019-01-29T10:37:15.182Z,4.57
2019-01-29T10:39:49.290Z,5.57
2019-01-29T10:42:25.593Z,3.50
2019-01-29T10:45:01.801Z,5.10
2019-01-29T10:47:36.870Z,6.10
2019-01-29T10:50:11.790Z,7.80
2019-01-29T10:52:45.356Z,3.97
2019-01-29T10:55:19.806Z,7.23
2019-01-29T10:57:52.194Z,3.93
2019-01-29T11:00:36.126Z,5.47
2019-01-29T11:03:08.691Z,3.63
2019-01-29T11:05:45.479Z,10.37
2019-01-29T11:08:18.213Z,4.40
2019-01-29T11:10:51.445Z,7.30
2019-01-29T11:13:24.874Z,8.20
2019-01-29T11:15:59.196Z,9.83
2019-01-29T11:18:39.681Z,7.30
2019-01-29T11:21:21.992Z,16.33
2019-01-29T11:23:58.154Z,9.03
2019-01-29T11:26:29.810Z,5.40
2019-01-29T11:29:06.300Z,11.53
2019-01-29T11:31:40.855Z,6.33
2019-01-29T11:34:13.564Z,7.97
2019-01-29T11:36:46.828Z,3.80
2019-01-29T11:39:21.074Z,7.47
2019-01-29T11:41:53.645Z,4.93
2019-01-29T11:44:23.995Z,8.37
2019-01-29T11:46:59.667Z,5.87
2019-01-29T11:49:31.792Z,4.93
2019-01-29T11:52:06.493Z,4.00
2019-01-29T11:54:52.638Z,7.30
2019-01-29T11:57:26.643Z,5.37
2019-01-29T12:00:20.962Z,4.87
2019-01-29T12:02:59.451Z,5.87
2019-01-29T12:05:49.041Z,7.93
2019-01-29T12:08:37.278Z,8.57
2019-01-29T12:11:10.472Z,9.70
2019-01-29T12:14:02.031Z,7.87
2019-01-29T12:16:38.023Z,7.40
2019-01-29T12:19:09.349Z,5.80
2019-01-29T12:21:42.206Z,4.83
2019-01-29T12:24:17.503Z,16.10
2019-01-29T12:26:49.666Z,8.50
2019-01-29T12:29:21.267Z,7.13
2019-01-29T12:31:59.565Z,4.50
2019-01-29T12:34:35.139Z,11.50
2019-01-29T12:37:11.519Z,5.50
2019-01-29T12:40:05.741Z,4.80
2019-01-29T12:42:38.193Z,4.30
2019-01-29T12:45:12.259Z,7.87
2019-01-29T12:48:02.914Z,6.93
2019-01-29T12:50:39.072Z,5.37
2019-01-29T12:53:19.284Z,7.17
2019-01-29T12:55:57.495Z,12.23
2019-01-29T12:58:41.284Z,7.20
2019-01-29T13:01:15.486Z,5.57
2019-01-29T13:04:06.809Z,10.83
2019-01-29T13:06:58.183Z,5.63
2019-01-29T13:09:32.181Z,3.50
2019-01-29T13:12:06.962Z,4.07
2019-01-29T13:14:39.635Z,4.00
2019-01-29T13:17:12.212Z,6.17
2019-01-29T13:19:48.532Z,6.10
2019-01-29T13:22:37.635Z,4.90
2019-01-29T13:25:12.363Z,6.80
2019-01-29T13:27:48.614Z,5.77
2019-01-29T13:30:39.226Z,5.70
2019-01-29T13:33:22.293Z,12.00
2019-01-29T13:35:59.743Z,9.77
2019-01-29T13:38:31.252Z,7.20
2019-01-29T13:41:07.937Z,6.40
2019-01-29T13:43:43.199Z,7.03
2019-01-29T13:46:19.405Z,7.60
2019-01-29T13:49:05.172Z,7.20
2019-01-29T13:51:38.689Z,6.43
2019-01-29T13:54:26.129Z,9.63
2019-01-29T13:57:02.189Z,5.60
2019-01-29T13:59:37.918Z,6.27
2019-01-29T14:02:09.558Z,5.37
2019-01-29T14:05:00.448Z,4.50
2019-01-29T14:07:40.629Z,9.07
2019-01-29T14:10:18.694Z,6.40
2019-01-29T14:12:51.840Z,6.83
2019-01-29T14:18:37.658Z,8.23
2019-01-29T14:21:13.196Z,8.17
2019-01-29T14:23:58.239Z,6.50
2019-01-29T14:26:30.527Z,5.20
2019-01-29T14:29:06.239Z,5.33
2019-01-29T14:31:37.112Z,8.57
2019-01-29T14:34:11.782Z,5.80
2019-01-29T14:36:46.891Z,5.33
2019-01-29T14:40:06.580Z,6.67
2019-01-29T14:42:38.110Z,7.13
2019-01-29T14:45:20.521Z,9.97
2019-01-29T14:47:51.538Z,9.03
2019-01-29T14:50:27.688Z,5.20
2019-01-29T14:53:01.554Z,17.83
2019-01-29T14:55:56.010Z,11.63
2019-01-29T14:58:29.251Z,10.33
2019-01-29T15:01:06.013Z,8.63
2019-01-29T15:03:38.791Z,7.53
2019-01-29T15:06:22.429Z,6.00
2019-01-29T15:08:58.132Z,8.00
2019-01-29T15:11:47.732Z,6.47
2019-01-29T15:14:18.464Z,10.40
2019-01-29T15:17:17.632Z,10.00
2019-01-29T15:19:49.507Z,12.30
2019-01-29T15:22:38.859Z,9.57
2019-01-29T15:25:19.183Z,10.80
2019-01-29T15:27:56.873Z,7.57
2019-01-29T15:30:30.846Z,10.53
2019-01-29T15:33:24.087Z,9.43
2019-01-29T15:35:59.740Z,11.00
2019-01-29T15:38:37.237Z,6.33
2019-01-29T15:41:18.365Z,10.10
2019-01-29T15:43:52.276Z,10.60
2019-01-29T15:46:25.467Z,10.43
2019-01-29T15:49:18.505Z,6.73
2019-01-29T15:51:57.776Z,7.40
2019-01-29T15:54:32.388Z,6.97
2019-01-29T15:57:13.834Z,8.17
2019-01-29T15:59:55.513Z,7.70
2019-01-29T16:02:26.500Z,6.90
2019-01-29T16:05:07.239Z,7.67
2019-01-29T16:07:45.828Z,7.20
2019-01-29T16:10:39.949Z,9.47
2019-01-29T16:13:29.507Z,9.17
2019-01-29T16:16:21.993Z,10.17
2019-01-29T16:19:00.126Z,10.30
2019-01-29T16:21:31.612Z,8.23
2019-01-29T16:24:10.987Z,7.90
2019-01-29T16:26:45.313Z,7.97
2019-01-29T16:29:22.238Z,7.90
2019-01-29T16:31:55.717Z,8.63
2019-01-29T16:34:37.870Z,10.80
2019-01-29T16:37:13.248Z,9.50
2019-01-29T16:39:49.161Z,8.87
2019-01-29T16:42:21.745Z,8.77
2019-01-29T16:44:58.564Z,7.40
2019-01-29T16:47:29.605Z,15.27
2019-01-29T16:50:23.233Z,16.37
2019-01-29T16:52:59.424Z,22.30
2019-01-29T16:55:52.107Z,12.53
2019-01-29T16:58:28.707Z,11.13
2019-01-29T17:01:02.858Z,12.17
2019-01-29T17:03:37.528Z,11.27
2019-01-29T17:06:22.936Z,18.03
2019-01-29T17:08:57.617Z,14.30
2019-01-29T17:11:41.384Z,12.93
2019-01-29T17:14:14.135Z,18.87
2019-01-29T17:16:49.461Z,19.80
2019-01-29T17:19:23.672Z,11.40
2019-01-29T17:21:58.390Z,9.40
2019-01-29T17:24:35.671Z,10.47
2019-01-29T17:27:07.648Z,7.13
2019-01-29T17:29:42.054Z,7.53
2019-01-29T17:32:15.213Z,7.90
2019-01-29T17:35:06.421Z,7.90
2019-01-29T17:37:41.094Z,11.30
2019-01-29T17:40:16.041Z,11.23
2019-01-29T17:43:01.045Z,7.07
2019-01-29T17:45:36.321Z,13.03
2019-01-29T17:48:15.449Z,10.30
2019-01-29T17:50:51.139Z,9.33
2019-01-29T17:53:25.808Z,8.63
2019-01-29T17:56:15.225Z,7.70
2019-01-29T17:58:50.981Z,8.40
2019-01-29T18:01:22.278Z,7.77
2019-01-29T18:03:57.642Z,7.47
2019-01-29T18:06:33.107Z,8.23
2019-01-29T18:09:09.489Z,7.70
2019-01-29T18:11:40.637Z,7.57
2019-01-29T18:14:14.662Z,9.10
2019-01-29T18:16:48.198Z,8.70
2019-01-29T18:19:19.103Z,18.80
2019-01-29T18:21:57.047Z,13.10
2019-01-29T18:24:25.371Z,12.90
2019-01-29T18:27:04.227Z,11.37
2019-01-29T18:29:38.835Z,14.03
2019-01-29T18:32:17.394Z,14.20
2019-01-29T18:34:49.919Z,12.13
2019-01-29T18:37:25.715Z,9.53
2019-01-29T18:40:17.964Z,11.03
2019-01-29T18:42:50.016Z,11.93
2019-01-29T18:45:28.323Z,9.93
2019-01-29T18:48:26.415Z,9.73
2019-01-29T18:51:01.360Z,9.90
2019-01-29T18:53:36.451Z,12.80
2019-01-29T18:56:08.717Z,10.53
2019-01-29T18:58:41.492Z,9.33
2019-01-29T19:01:17.783Z,10.23
2019-01-29T19:03:50.397Z,13.50
2019-01-29T19:06:41.083Z,13.27
2019-01-29T19:09:14.776Z,14.00
2019-01-29T19:12:09.968Z,12.30
2019-01-29T19:14:45.998Z,13.80
2019-01-29T19:17:20.379Z,13.83
2019-01-29T19:20:00.025Z,20.93
2019-01-29T19:22:33.788Z,20.73
2019-01-29T19:25:10.756Z,14.10
2019-01-29T19:27:49.314Z,17.07
2019-01-29T19:30:30.659Z,19.57
2019-01-29T19:33:12.652Z,15.20
2019-01-29T19:35:45.476Z,16.33
2019-01-29T19:38:18.295Z,15.87
2019-01-29T19:41:10.341Z,18.90
2019-01-29T19:44:04.995Z,15.60
2019-01-29T19:46:56.071Z,23.30
2019-01-29T19:49:28.793Z,15.80
2019-01-29T19:52:20.214Z,15.60
2019-01-29T19:55:04.261Z,17.73
2019-01-29T19:57:36.628Z,14.50
2019-01-29T20:00:16.083Z,13.20
2019-01-29T20:02:50.566Z,17.20
2019-01-29T20:05:28.708Z,19.50
2019-01-29T20:08:02.467Z,16.73
2019-01-29T20:10:44.495Z,18.37
2019-01-29T20:13:20.705Z,17.27
2019-01-29T20:15:57.869Z,17.13
2019-01-29T20:18:28.949Z,14.63
2019-01-29T20:21:01.368Z,19.10
2019-01-29T20:23:35.838Z,14.33
2019-01-29T20:26:07.870Z,15.70
2019-01-29T20:28:43.226Z,15.13
2019-01-29T20:31:16.964Z,14.20
2019-01-29T20:34:03.092Z,14.40
2019-01-29T20:36:35.604Z,14.87
2019-01-29T20:39:19.593Z,20.67
2019-01-29T20:41:55.180Z,13.73
2019-01-29T20:44:35.302Z,14.70
2019-01-29T20:47:10.376Z,15.60
2019-01-29T20:49:59.110Z,14.80
2019-01-29T20:52:37.083Z,15.37
2019-01-29T20:55:11.691Z,17.63
2019-01-29T20:57:46.886Z,16.70
2019-01-29T21:00:25.354Z,14.17
2019-01-29T21:03:01.606Z,17.57
2019-01-29T21:05:44.178Z,19.03
2019-01-29T21:08:17.592Z,15.43
2019-01-29T21:10:51.096Z,21.37
2019-01-29T21:13:24.500Z,17.33
2019-01-29T21:16:00.980Z,16.87
2019-01-29T21:18:41.285Z,19.00
2019-01-29T21:21:18.491Z,24.50
2019-01-29T21:24:07.185Z,17.50
2019-01-29T21:26:39.979Z,18.80
2019-01-29T21:29:15.511Z,19.80
2019-01-29T21:31:48.633Z,15.97
2019-01-29T21:34:21.233Z,20.40
2019-01-29T21:36:52.732Z,16.40
2019-01-29T21:39:27.558Z,15.50
2019-01-29T21:42:02.198Z,17.13
2019-01-29T21:44:38.575Z,18.20
2019-01-29T21:47:13.226Z,15.13
2019-01-29T21:49:47.574Z,16.23
2019-01-29T21:52:19.645Z,17.77
2019-01-29T21:54:59.847Z,18.47
2019-01-29T21:57:31.790Z,17.97
2019-01-29T22:00:06.631Z,14.93
2019-01-29T22:02:38.824Z,16.53
2019-01-29T22:05:13.306Z,17.90
2019-01-29T22:07:47.386Z,16.20
2019-01-29T22:10:19.364Z,17.97
2019-01-29T22:12:51.933Z,21.17
2019-01-29T22:15:27.104Z,17.13
2019-01-29T22:18:01.556Z,13.20
2019-01-29T22:20:46.291Z,14.73
2019-01-29T22:23:19.318Z,15.80
2019-01-29T22:25:52.876Z,12.63
2019-01-29T22:28:26.805Z,15.43
2019-01-29T22:31:01.116Z,12.53
2019-01-29T22:33:31.841Z,16.90
2019-01-29T22:36:04.020Z,15.43
2019-01-29T22:38:37.833Z,13.13
2019-01-29T22:41:11.828Z,17.87
2019-01-29T22:43:46.092Z,15.10
2019-01-29T22:46:20.540Z,13.80
2019-01-29T22:48:52.932Z,12.87
2019-01-29T22:51:30.819Z,12.60
2019-01-29T22:54:15.212Z,14.93
2019-01-29T22:56:47.452Z,15.80
2019-01-29T22:59:22.136Z,14.37
2019-01-29T23:01:59.641Z,18.20
2019-01-29T23:04:41.070Z,13.70
2019-01-29T23:07:21.020Z,14.13
2019-01-29T23:10:02.980Z,15.50
2019-01-29T23:12:35.416Z,11.23
2019-01-29T23:15:11.102Z,15.50
2019-01-29T23:17:46.441Z,16.30
2019-01-29T23:20:18.937Z,15.63
2019-01-29T23:22:49.700Z,13.97
2019-01-29T23:25:22.538Z,14.23
2019-01-29T23:27:53.086Z,12.50
2019-01-29T23:30:25.131Z,12.73
2019-01-29T23:33:01.539Z,16.17
2019-01-29T23:35:34.850Z,13.93
2019-01-29T23:38:06.276Z,18.87
2019-01-29T23:40:39.084Z,12.77
2019-01-29T23:43:26.695Z,10.93
2019-01-29T23:46:03.555Z,14.57
2019-01-29T23:48:36.280Z,16.20
2019-01-29T23:51:08.162Z,12.07
2019-01-29T23:53:45.117Z,11.37
2019-01-29T23:56:17.394Z,10.93
2019-01-29T23:59:10.602Z,12.47
